Time;durP1;ratioP1;P1;durP2;ratioP2;P2;SDS_P1;SDS_P2;PMS_P1;PMS_P2;Temp;Humidity;BMP_temperature;BMP_pressure;BME280_temperature;BME280_humidity;BME280_pressure;Samples;Min_cycle;Max_cycle;Signal;HPM_P1;HPM_P2
2021/06/03 00:02:00;;;;;;;3.40;0.70;;;18.70;99.90;;;;;;4934661;29;20230;-79
2021/06/03 00:04:25;;;;;;;1.70;0.60;;;18.70;99.90;;;;;;4951883;29;20035;-79
2021/06/03 00:06:51;;;;;;;2.50;0.70;;;18.70;99.90;;;;;;4950328;29;20039;-78
2021/06/03 00:09:17;;;;;;;1.92;0.50;;;18.70;99.90;;;;;;4934257;29;20078;-78
2021/06/03 00:11:43;;;;;;;1.10;0.50;;;18.60;99.90;;;;;;4950379;29;20031;-78
2021/06/03 00:14:09;;;;;;;1.73;0.60;;;18.50;99.90;;;;;;4934357;29;20074;-79
2021/06/03 00:16:35;;;;;;;1.42;0.57;;;18.50;99.90;;;;;;4951184;29;20039;-79
2021/06/03 00:19:07;;;;;;;1.70;0.60;;;18.50;99.90;;;;;;4951374;29;20040;-79
2021/06/03 00:21:33;;;;;;;2.75;0.60;;;18.50;99.90;;;;;;4934451;29;20040;-78
2021/06/03 00:23:59;;;;;;;1.98;0.70;;;18.50;99.90;;;;;;4950106;29;20503;-79
2021/06/03 00:26:25;;;;;;;2.30;0.70;;;18.50;99.90;;;;;;4945723;29;20032;-78
2021/06/03 00:28:51;;;;;;;1.95;0.85;;;18.50;99.90;;;;;;4949913;29;20066;-79
2021/06/03 00:31:17;;;;;;;2.08;0.70;;;18.40;99.90;;;;;;4951164;29;20032;-79
2021/06/03 00:33:42;;;;;;;1.73;0.60;;;18.30;99.90;;;;;;4951152;29;20048;-78
2021/06/03 00:36:08;;;;;;;2.15;0.60;;;18.20;99.90;;;;;;4950852;29;20051;-78
2021/06/03 00:38:35;;;;;;;2.40;0.50;;;18.20;99.90;;;;;;4965602;29;20036;-78
2021/06/03 00:41:01;;;;;;;1.40;0.60;;;18.30;99.90;;;;;;4951034;29;20054;-78
2021/06/03 00:43:26;;;;;;;1.52;0.60;;;18.20;99.90;;;;;;4947296;29;20036;-78
2021/06/03 00:45:52;;;;;;;2.13;0.60;;;18.20;99.90;;;;;;4949582;29;20039;-78
2021/06/03 00:48:18;;;;;;;1.85;0.55;;;18.20;99.90;;;;;;4950681;29;20066;-78
2021/06/03 00:50:49;;;;;;;2.40;0.60;;;18.20;99.90;;;;;;4950903;29;20056;-78
2021/06/03 00:53:16;;;;;;;1.67;0.50;;;18.10;99.90;;;;;;4949385;29;20039;-79
2021/06/03 00:55:48;;;;;;;1.63;0.60;;;18.20;99.90;;;;;;4918069;29;20039;-78
2021/06/03 00:58:19;;;;;;;1.60;0.63;;;18.20;99.90;;;;;;4950530;29;20110;-79
2021/06/03 01:00:49;;;;;;;2.05;0.70;;;18.30;99.90;;;;;;4950713;29;20032;-78
2021/06/03 01:03:16;;;;;;;2.03;0.60;;;18.30;99.90;;;;;;4949028;29;20040;-78
2021/06/03 01:05:48;;;;;;;2.15;0.70;;;18.30;99.90;;;;;;4932745;29;20094;-79
2021/06/03 01:08:19;;;;;;;1.60;0.50;;;18.40;99.90;;;;;;4950357;29;20056;-77
2021/06/03 01:10:58;;;;;;;1.20;0.63;;;18.30;99.90;;;;;;4917874;29;20038;-78
2021/06/03 01:13:39;;;;;;;0.90;0.47;;;18.30;99.90;;;;;;4948843;29;20079;-78
2021/06/03 01:16:06;;;;;;;1.30;0.50;;;18.30;99.90;;;;;;4950573;29;20075;-78
2021/06/03 01:18:34;;;;;;;1.05;0.43;;;18.30;99.90;;;;;;4950367;29;20038;-78
2021/06/03 01:21:06;;;;;;;2.30;0.50;;;18.30;99.90;;;;;;4917788;29;20098;-78
2021/06/03 01:23:38;;;;;;;2.03;0.50;;;18.30;99.90;;;;;;4949684;29;20036;-79
2021/06/03 01:26:08;;;;;;;1.10;0.50;;;18.20;99.90;;;;;;4958923;29;20032;-78
2021/06/03 01:28:35;;;;;;;1.38;0.50;;;18.20;99.90;;;;;;4965799;29;20036;-79
2021/06/03 01:31:03;;;;;;;2.25;0.60;;;18.10;99.90;;;;;;4950277;29;20027;-79
2021/06/03 01:33:32;;;;;;;7.95;0.80;;;18.10;99.90;;;;;;4948809;29;20052;-79
2021/06/03 01:36:01;;;;;;;1.17;0.60;;;18.10;99.90;;;;;;4950048;29;20028;-79
2021/06/03 01:38:35;;;;;;;2.15;0.60;;;18.10;99.90;;;;;;4964875;29;20040;-79
2021/06/03 01:41:03;;;;;;;1.42;0.50;;;18.10;99.90;;;;;;4964844;29;20031;-79
2021/06/03 01:43:30;;;;;;;1.38;0.50;;;18.00;99.90;;;;;;4962213;29;20028;-79
2021/06/03 01:45:58;;;;;;;1.33;0.50;;;18.00;99.90;;;;;;4948580;29;20039;-77
2021/06/03 01:48:25;;;;;;;1.20;0.60;;;18.00;99.90;;;;;;4932716;29;20028;-79
2021/06/03 01:50:55;;;;;;;1.40;0.70;;;18.00;99.90;;;;;;4949864;29;20050;-78
2021/06/03 01:53:23;;;;;;;3.25;0.70;;;17.90;99.90;;;;;;4932740;29;20043;-78
2021/06/03 01:55:52;;;;;;;1.60;0.70;;;17.90;99.90;;;;;;4949918;29;20056;-78
2021/06/03 01:58:19;;;;;;;1.70;0.70;;;17.90;99.90;;;;;;4948506;29;20520;-77
2021/06/03 02:00:45;;;;;;;1.20;0.70;;;17.90;99.90;;;;;;4948463;29;20032;-78
2021/06/03 02:03:11;;;;;;;2.08;0.73;;;17.90;99.90;;;;;;4948246;29;20382;-78
2021/06/03 02:05:57;;;;;;;1.55;0.75;;;17.90;99.90;;;;;;4948133;29;20034;-78
2021/06/03 02:08:23;;;;;;;3.35;1.10;;;17.90;99.90;;;;;;4893172;29;20052;-78
2021/06/03 02:11:06;;;;;;;1.30;0.80;;;17.80;99.90;;;;;;4893414;29;20041;-78
2021/06/03 02:13:40;;;;;;;1.60;0.80;;;17.80;99.90;;;;;;4877956;29;20060;-78
2021/06/03 02:16:19;;;;;;;1.27;0.63;;;17.80;99.90;;;;;;4892932;29;20155;-77
2021/06/03 02:18:58;;;;;;;1.48;0.73;;;17.80;99.90;;;;;;4892644;29;20039;-77
2021/06/03 02:21:32;;;;;;;2.30;0.60;;;17.70;99.90;;;;;;4893283;29;20039;-78
2021/06/03 02:24:01;;;;;;;1.30;0.60;;;17.70;99.90;;;;;;4893419;29;20072;-79
2021/06/03 02:26:29;;;;;;;1.80;0.60;;;17.70;99.90;;;;;;4877773;29;20041;-78
2021/06/03 02:29:03;;;;;;;1.92;0.57;;;17.70;99.90;;;;;;4908970;29;20056;-79
2021/06/03 02:31:33;;;;;;;1.23;0.75;;;17.60;99.90;;;;;;4893218;29;20033;-79
2021/06/03 02:33:59;;;;;;;3.30;0.60;;;17.60;99.90;;;;;;4892975;29;20040;-79
2021/06/03 02:36:29;;;;;;;1.88;0.70;;;17.60;99.90;;;;;;4892567;29;20040;-78
2021/06/03 02:38:57;;;;;;;1.30;0.70;;;17.50;99.90;;;;;;4908407;29;20063;-79
2021/06/03 02:41:23;;;;;;;1.17;0.52;;;17.50;99.90;;;;;;4892889;29;20029;-79
2021/06/03 02:43:50;;;;;;;1.50;0.60;;;17.50;99.90;;;;;;4892824;29;20028;-78
2021/06/03 02:46:21;;;;;;;1.80;0.70;;;17.40;99.90;;;;;;4942912;29;20048;-78
2021/06/03 02:48:49;;;;;;;1.50;0.73;;;17.40;99.90;;;;;;4931523;29;20029;-79
2021/06/03 02:51:15;;;;;;;1.48;0.70;;;17.40;99.90;;;;;;4947265;29;20023;-78
2021/06/03 02:53:43;;;;;;;1.58;0.80;;;17.40;99.90;;;;;;4948600;29;20050;-78
2021/06/03 02:56:17;;;;;;;2.17;0.90;;;17.40;99.90;;;;;;4948484;29;20024;-78
2021/06/03 02:58:45;;;;;;;2.73;0.90;;;17.40;99.90;;;;;;4931558;29;20042;-78
2021/06/03 03:01:13;;;;;;;2.58;1.45;;;17.40;99.90;;;;;;4931359;29;20067;-79
2021/06/03 03:03:39;;;;;;;2.58;0.70;;;17.40;99.90;;;;;;4931354;29;20028;-78
2021/06/03 03:06:07;;;;;;;1.50;0.70;;;17.40;99.90;;;;;;4931115;29;20055;-79
2021/06/03 03:08:33;;;;;;;2.75;0.88;;;17.30;99.90;;;;;;4931139;29;20044;-78
2021/06/03 03:11:00;;;;;;;1.58;0.82;;;17.20;99.90;;;;;;4947134;29;20035;-78
2021/06/03 03:13:32;;;;;;;2.10;1.60;;;17.30;99.90;;;;;;4947116;29;20040;-78
2021/06/03 03:15:58;;;;;;;2.33;1.40;;;17.30;99.90;;;;;;4946933;29;20028;-78
2021/06/03 03:18:25;;;;;;;2.67;1.15;;;17.20;99.90;;;;;;4931210;29;20031;-78
2021/06/03 03:20:52;;;;;;;1.83;0.90;;;17.10;99.90;;;;;;4930934;29;20027;-78
2021/06/03 03:23:18;;;;;;;1.83;0.93;;;17.20;99.90;;;;;;4947000;29;20523;-79
2021/06/03 03:25:48;;;;;;;1.90;0.90;;;17.20;99.90;;;;;;4922595;29;20059;-78
2021/06/03 03:28:14;;;;;;;1.73;0.80;;;17.20;99.90;;;;;;4962580;29;20024;-78
2021/06/03 03:30:42;;;;;;;1.80;0.90;;;17.10;99.90;;;;;;4946782;29;20036;-77
2021/06/03 03:33:12;;;;;;;2.10;0.98;;;17.20;99.90;;;;;;4962704;29;20067;-78
2021/06/03 03:35:39;;;;;;;1.75;0.75;;;17.20;99.90;;;;;;4946654;29;20030;-78
2021/06/03 03:38:05;;;;;;;2.00;0.77;;;17.20;99.90;;;;;;4962589;29;20059;-78
2021/06/03 03:40:31;;;;;;;2.58;0.80;;;17.30;99.90;;;;;;4947552;29;20024;-78
2021/06/03 03:42:57;;;;;;;3.10;1.20;;;17.20;99.90;;;;;;4947391;29;20028;-78
2021/06/03 03:45:24;;;;;;;2.20;0.85;;;17.30;99.90;;;;;;4930338;29;20031;-78
2021/06/03 03:47:51;;;;;;;2.13;0.90;;;17.30;99.90;;;;;;4914284;29;20043;-77
2021/06/03 03:50:18;;;;;;;1.90;1.08;;;17.30;99.90;;;;;;4930064;29;20031;-77
2021/06/03 03:52:45;;;;;;;1.80;0.85;;;17.40;99.90;;;;;;4914491;29;20039;-78
2021/06/03 03:55:13;;;;;;;3.53;1.30;;;17.40;99.90;;;;;;4930256;29;20031;-78
2021/06/03 03:57:40;;;;;;;1.65;0.98;;;17.40;99.90;;;;;;4945911;29;20023;-77
2021/06/03 04:00:08;;;;;;;2.25;0.95;;;17.40;99.90;;;;;;4946021;29;20104;-76
2021/06/03 04:02:42;;;;;;;2.40;1.00;;;17.50;99.90;;;;;;4947286;29;20567;-77
2021/06/03 04:05:10;;;;;;;2.03;1.00;;;17.50;99.90;;;;;;4930151;29;20035;-77
2021/06/03 04:07:37;;;;;;;2.67;1.00;;;17.60;99.90;;;;;;4946597;23;20419;-80
2021/06/03 04:10:08;;;;;;;3.50;1.07;;;17.60;99.90;;;;;;4930213;29;20100;-79
2021/06/03 04:12:34;;;;;;;3.97;1.25;;;17.60;99.90;;;;;;4930513;29;20042;-79
2021/06/03 04:15:03;;;;;;;2.20;1.20;;;17.70;99.90;;;;;;4913420;29;20047;-79
2021/06/03 04:17:28;;;;;;;1.83;1.23;;;17.70;99.90;;;;;;4965723;29;20043;-80
2021/06/03 04:19:57;;;;;;;2.78;1.38;;;17.80;99.90;;;;;;4949406;29;20063;-80
2021/06/03 04:22:24;;;;;;;;;;;17.80;99.90;;;;;;4949472;29;20055;-79
2021/06/03 04:24:50;;;;;;;1.70;0.90;;;17.80;99.90;;;;;;4966625;29;19911;-79
2021/06/03 04:29:57;;;;;;;2.67;0.95;;;17.90;99.90;;;;;;4919661;26;20051;-79
2021/06/03 04:32:23;;;;;;;1.65;1.10;;;17.90;99.90;;;;;;4949053;29;20043;-78
2021/06/03 04:34:49;;;;;;;2.17;1.35;;;18.00;99.90;;;;;;4949094;29;20130;-78
2021/06/03 04:37:15;;;;;;;2.38;1.35;;;18.00;99.90;;;;;;4965607;29;20035;-79
2021/06/03 04:39:40;;;;;;;1.80;1.05;;;18.00;99.90;;;;;;4965818;28;20042;-79
2021/06/03 04:42:07;;;;;;;2.95;1.13;;;18.00;99.90;;;;;;4968798;29;20170;-79
2021/06/03 04:44:33;;;;;;;1.92;1.30;;;18.00;99.90;;;;;;4952148;29;20031;-79
2021/06/03 04:46:59;;;;;;;2.88;1.67;;;18.00;99.90;;;;;;4969576;29;20403;-78
2021/06/03 04:49:24;;;;;;;2.97;1.80;;;18.00;99.90;;;;;;4969730;29;20051;-79
2021/06/03 04:51:51;;;;;;;3.22;2.58;;;18.10;99.90;;;;;;4969443;29;20031;-79
2021/06/03 04:54:16;;;;;;;3.78;2.00;;;18.10;99.90;;;;;;4969608;29;20418;-79
2021/06/03 04:56:45;;;;;;;3.28;1.80;;;18.20;99.90;;;;;;4968100;29;20103;-78
2021/06/03 04:59:12;;;;;;;2.67;1.80;;;18.20;99.90;;;;;;4969331;29;20031;-78
2021/06/03 05:01:40;;;;;;;3.03;1.83;;;18.30;99.90;;;;;;4969572;29;20032;-79
2021/06/03 05:04:06;;;;;;;2.53;1.13;;;18.40;99.90;;;;;;4969301;29;20114;-77
2021/06/03 05:06:31;;;;;;;2.42;1.50;;;18.50;99.90;;;;;;4951743;29;20038;-79
2021/06/03 05:08:57;;;;;;;2.38;1.17;;;18.50;99.90;;;;;;4969094;29;20384;-79
2021/06/03 05:11:23;;;;;;;2.90;1.30;;;18.70;99.90;;;;;;4969038;29;20035;-78
2021/06/03 05:13:48;;;;;;;3.13;1.80;;;18.80;99.90;;;;;;4967504;29;20062;-79
2021/06/03 05:16:14;;;;;;;3.28;1.38;;;19.00;99.90;;;;;;4945849;28;20080;-78
2021/06/03 05:18:39;;;;;;;2.65;2.00;;;19.20;99.90;;;;;;4965600;29;20035;-79
2021/06/03 05:21:06;;;;;;;3.22;2.15;;;19.30;99.90;;;;;;4967548;29;20043;-79
2021/06/03 05:23:32;;;;;;;2.80;1.67;;;19.50;99.90;;;;;;4968578;29;20071;-80
2021/06/03 05:25:58;;;;;;;3.85;2.75;;;19.90;99.90;;;;;;4968644;29;20031;-79
2021/06/03 05:28:24;;;;;;;4.45;1.60;;;20.00;99.90;;;;;;4967328;29;20106;-79
2021/06/03 05:30:50;;;;;;;3.55;1.73;;;20.30;99.90;;;;;;4968784;29;20039;-79
2021/06/03 05:33:15;;;;;;;2.67;1.75;;;20.30;99.90;;;;;;4951258;29;20685;-78
2021/06/03 05:35:41;;;;;;;3.50;1.25;;;20.50;99.90;;;;;;4951137;29;20487;-79
2021/06/03 05:38:07;;;;;;;2.72;1.30;;;20.70;99.90;;;;;;4951262;29;20038;-80
2021/06/03 05:40:33;;;;;;;3.33;1.55;;;20.60;99.90;;;;;;4951421;29;20051;-80
2021/06/03 05:42:59;;;;;;;2.65;1.75;;;20.40;99.90;;;;;;4951981;29;20035;-80
2021/06/03 05:45:26;;;;;;;5.18;1.80;;;20.30;99.90;;;;;;4951086;29;20452;-79
2021/06/03 05:47:52;;;;;;;2.65;1.40;;;20.30;99.90;;;;;;4951195;29;20121;-80
2021/06/03 05:50:20;;;;;;;3.20;1.40;;;20.20;99.90;;;;;;4951054;29;20137;-80
2021/06/03 05:52:47;;;;;;;5.28;2.10;;;20.30;99.90;;;;;;4950136;29;20047;-80
2021/06/03 05:55:15;;;;;;;4.63;1.77;;;20.30;99.90;;;;;;4966817;29;20031;-80
2021/06/03 05:57:41;;;;;;;3.60;1.90;;;20.00;99.90;;;;;;4968088;29;20591;-80
2021/06/03 06:00:10;;;;;;;2.85;1.80;;;20.10;99.90;;;;;;4966555;29;20027;-79
2021/06/03 06:02:47;;;;;;;2.90;1.33;;;20.10;99.90;;;;;;4968466;29;20130;-80
2021/06/03 06:08:07;;;;;;;4.03;2.17;;;20.20;99.90;;;;;;4908715;29;20044;-79
2021/06/03 06:10:34;;;;;;;3.67;1.90;;;20.30;99.90;;;;;;4893023;29;20100;-79
2021/06/03 06:12:59;;;;;;;3.67;2.33;;;20.40;99.90;;;;;;4892953;29;20050;-79
2021/06/03 06:15:27;;;;;;;2.92;2.17;;;20.60;99.90;;;;;;4908473;29;20123;-79
2021/06/03 06:17:53;;;;;;;3.10;2.70;;;20.50;99.90;;;;;;4908423;29;20040;-79
2021/06/03 06:20:19;;;;;;;5.22;2.53;;;20.60;99.90;;;;;;4908382;29;20048;-80
2021/06/03 06:22:45;;;;;;;2.90;1.98;;;20.70;99.90;;;;;;4892875;29;20100;-80
2021/06/03 06:25:11;;;;;;;4.68;2.17;;;20.70;99.90;;;;;;4908199;29;20037;-80
2021/06/03 06:27:36;;;;;;;3.83;2.85;;;20.80;99.90;;;;;;4892629;29;20075;-79
2021/06/03 06:30:05;;;;;;;3.13;2.78;;;20.70;99.90;;;;;;4908203;29;20033;-79
2021/06/03 06:32:31;;;;;;;6.03;3.63;;;20.70;99.90;;;;;;4892733;29;20048;-79
2021/06/03 06:34:57;;;;;;;3.30;2.97;;;20.60;99.90;;;;;;4892469;29;20308;-80
2021/06/03 06:37:22;;;;;;;3.33;2.40;;;20.60;99.90;;;;;;4892470;29;20028;-80
2021/06/03 06:39:48;;;;;;;5.00;2.97;;;20.50;99.90;;;;;;4908008;29;20429;-79
2021/06/03 06:42:13;;;;;;;5.15;3.00;;;20.60;99.90;;;;;;4908233;29;20052;-80
2021/06/03 06:44:39;;;;;;;5.72;3.22;;;20.70;99.90;;;;;;4911230;29;20047;-80
2021/06/03 06:47:05;;;;;;;4.30;3.00;;;20.70;99.90;;;;;;4950260;29;20035;-80
2021/06/03 06:49:30;;;;;;;4.25;3.03;;;20.50;99.90;;;;;;4966128;29;20070;-80
2021/06/03 06:51:56;;;;;;;4.68;2.33;;;20.60;99.90;;;;;;4967388;29;20030;-80
2021/06/03 06:54:22;;;;;;;3.75;3.35;;;20.70;99.90;;;;;;4950030;29;20546;-80
2021/06/03 06:56:48;;;;;;;5.53;3.72;;;20.70;99.90;;;;;;4967265;29;20243;-79
2021/06/03 06:59:13;;;;;;;3.85;3.08;;;20.70;99.90;;;;;;4966044;29;20471;-80
2021/06/03 07:01:39;;;;;;;3.20;2.72;;;20.70;99.90;;;;;;4966154;29;20028;-80
2021/06/03 07:04:04;;;;;;;4.00;3.22;;;21.00;99.90;;;;;;4966769;28;20035;-80
2021/06/03 07:06:30;;;;;;;4.32;3.50;;;21.00;99.90;;;;;;4965526;29;20035;-79
2021/06/03 07:08:56;;;;;;;5.22;3.58;;;21.00;99.90;;;;;;4949910;29;20059;-80
2021/06/03 07:11:24;;;;;;;4.82;3.88;;;21.00;99.90;;;;;;4965563;29;20288;-79
2021/06/03 07:13:50;;;;;;;7.13;3.80;;;20.90;99.90;;;;;;4967175;29;20043;-80
2021/06/03 07:16:17;;;;;;;4.70;3.50;;;20.90;99.90;;;;;;4965562;29;20098;-79
2021/06/03 07:18:43;;;;;;;5.30;3.70;;;20.90;99.90;;;;;;4967106;29;20411;-80
2021/06/03 07:21:08;;;;;;;5.18;4.07;;;21.00;99.90;;;;;;4949869;29;20035;-80
2021/06/03 07:23:34;;;;;;;6.10;4.22;;;20.80;99.90;;;;;;4965660;29;20054;-79
2021/06/03 07:26:00;;;;;;;5.15;3.88;;;20.90;99.90;;;;;;4966711;29;20510;-80
2021/06/03 07:28:25;;;;;;;5.93;4.30;;;20.90;99.90;;;;;;4966686;28;20063;-79
2021/06/03 07:30:51;;;;;;;5.88;3.67;;;20.60;99.90;;;;;;4968309;29;20035;-78
2021/06/03 07:33:17;;;;;;;4.63;3.53;;;20.90;99.90;;;;;;4967234;28;20514;-79
2021/06/03 07:35:43;;;;;;;5.22;4.15;;;21.80;99.90;;;;;;4965368;29;20031;-79
2021/06/03 07:38:09;;;;;;;5.43;4.00;;;22.20;99.90;;;;;;4966835;28;20027;-79
2021/06/03 07:40:38;;;;;;;5.10;3.53;;;22.70;99.90;;;;;;4965269;29;20046;-79
2021/06/03 07:43:10;;;;;;;5.22;4.47;;;22.90;99.90;;;;;;4965529;29;20477;-78
2021/06/03 07:45:36;;;;;;;5.20;4.28;;;22.90;99.90;;;;;;4949320;29;20125;-79
2021/06/03 07:48:02;;;;;;;6.72;5.55;;;22.90;99.90;;;;;;4949464;29;20395;-79
2021/06/03 07:50:29;;;;;;;8.20;5.18;;;23.00;99.90;;;;;;4966598;29;20042;-79
2021/06/03 07:52:55;;;;;;;7.35;4.95;;;23.70;99.90;;;;;;4949450;29;20043;-80
2021/06/03 07:55:21;;;;;;;4.47;4.05;;;23.90;99.90;;;;;;4949285;29;20050;-79
2021/06/03 07:57:51;;;;;;;3.45;2.72;;;24.60;99.90;;;;;;4966581;29;20035;-79
2021/06/03 08:00:18;;;;;;;;;;;24.70;99.90;;;;;;4966888;29;20059;-80
2021/06/03 08:02:45;;;;;;;5.28;4.30;;;24.70;99.90;;;;;;4966598;29;19933;-79
2021/06/03 08:05:12;;;;;;;6.32;4.45;;;24.20;99.90;;;;;;4966531;29;20055;-79
2021/06/03 08:07:39;;;;;;;5.07;4.45;;;24.10;99.90;;;;;;4964973;29;20062;-79
2021/06/03 08:10:07;;;;;;;6.85;5.03;;;23.90;99.90;;;;;;4966324;29;20479;-79
2021/06/03 08:12:33;;;;;;;5.32;4.30;;;23.70;99.90;;;;;;4949092;29;20043;-79
2021/06/03 08:14:58;;;;;;;5.18;3.47;;;23.80;99.90;;;;;;4966648;28;20102;-79
2021/06/03 08:17:24;;;;;;;3.97;3.53;;;23.70;99.90;;;;;;4952594;29;20057;-80
2021/06/03 08:19:50;;;;;;;3.60;3.30;;;23.70;99.90;;;;;;4952957;29;20038;-79
2021/06/03 08:22:15;;;;;;;5.00;3.08;;;23.80;99.90;;;;;;4968691;29;20028;-78
2021/06/03 08:24:41;;;;;;;4.05;3.38;;;24.00;99.90;;;;;;4970044;29;20035;-79
2021/06/03 08:27:07;;;;;;;5.22;4.53;;;24.40;99.90;;;;;;4968502;29;20031;-80
2021/06/03 08:29:33;;;;;;;6.10;3.90;;;24.50;99.90;;;;;;4968572;29;20491;-80
2021/06/03 08:31:58;;;;;;;4.30;3.92;;;24.90;99.90;;;;;;4969798;28;20107;-80
2021/06/03 08:34:24;;;;;;;4.78;2.70;;;24.50;99.90;;;;;;4968701;29;20039;-79
2021/06/03 08:36:50;;;;;;;5.20;4.00;;;25.10;99.90;;;;;;4969375;28;20031;-80
2021/06/03 08:39:15;;;;;;;4.30;3.40;;;25.30;99.90;;;;;;4968457;29;20062;-80
2021/06/03 08:41:45;;;;;;;4.25;2.97;;;25.00;99.90;;;;;;4968448;29;20042;-79
2021/06/03 08:44:11;;;;;;;3.75;2.33;;;25.20;99.90;;;;;;4960168;29;20066;-80
2021/06/03 08:46:37;;;;;;;5.55;3.03;;;25.80;99.90;;;;;;4952241;29;20134;-79
2021/06/03 08:49:04;;;;;;;3.90;2.17;;;25.70;99.90;;;;;;4952438;29;20039;-79
2021/06/03 08:51:31;;;;;;;4.47;1.73;;;25.40;99.90;;;;;;4952290;29;20054;-80
2021/06/03 08:53:57;;;;;;;3.33;2.33;;;25.50;99.90;;;;;;4952413;29;20075;-79
2021/06/03 08:56:24;;;;;;;5.80;3.53;;;24.90;99.90;;;;;;4967861;29;20031;-80
2021/06/03 08:58:55;;;;;;;3.28;1.63;;;24.80;99.90;;;;;;4952184;29;20507;-79
2021/06/03 09:01:22;;;;;;;2.85;2.47;;;25.20;99.90;;;;;;4969423;29;20054;-80
2021/06/03 09:03:48;;;;;;;2.78;1.73;;;25.30;99.90;;;;;;4969326;29;20063;-80
2021/06/03 09:06:15;;;;;;;4.43;2.35;;;25.90;99.90;;;;;;4951712;29;20043;-80
2021/06/03 09:08:47;;;;;;;4.22;2.83;;;25.90;99.90;;;;;;4969520;29;20087;-80
2021/06/03 09:11:18;;;;;;;3.40;1.27;;;25.50;99.90;;;;;;4969127;29;20097;-80
2021/06/03 09:13:51;;;;;;;3.45;2.58;;;25.80;99.90;;;;;;4951694;29;20106;-80
2021/06/03 09:16:20;;;;;;;6.30;4.03;;;25.90;99.90;;;;;;4968900;29;20035;-80
2021/06/03 09:18:58;;;;;;;4.45;3.97;;;25.60;99.90;;;;;;4969072;29;20063;-79
2021/06/03 09:21:30;;;;;;;2.83;2.22;;;25.30;99.90;;;;;;4967655;29;20032;-79
2021/06/03 09:24:10;;;;;;;4.57;3.05;;;26.00;99.90;;;;;;4967668;29;20035;-79
2021/06/03 09:26:54;;;;;;;6.53;2.13;;;25.80;99.90;;;;;;4968213;28;20042;-81
2021/06/03 09:29:24;;;;;;;2.67;1.52;;;25.80;99.90;;;;;;4968627;28;20071;-80
2021/06/03 09:31:51;;;;;;;3.47;1.70;;;26.10;99.90;;;;;;4968770;28;20027;-79
2021/06/03 09:34:21;;;;;;;3.45;1.80;;;26.10;99.90;;;;;;4969187;28;20046;-79
2021/06/03 09:36:49;;;;;;;3.63;1.60;;;26.00;99.90;;;;;;4967075;29;20028;-80
2021/06/03 09:39:24;;;;;;;4.90;2.40;;;25.90;99.90;;;;;;4968661;29;20480;-80
2021/06/03 09:42:03;;;;;;;3.70;2.05;;;25.70;99.90;;;;;;4967397;28;20443;-80
2021/06/03 09:44:33;;;;;;;3.75;2.13;;;25.90;99.90;;;;;;4956739;29;20035;-80
2021/06/03 09:47:07;;;;;;;4.40;3.33;;;26.20;99.90;;;;;;4966983;29;20027;-80
2021/06/03 09:49:36;;;;;;;5.28;2.35;;;26.00;99.90;;;;;;4967232;29;20070;-79
2021/06/03 09:52:11;;;;;;;2.88;1.83;;;26.60;99.90;;;;;;4968267;29;20035;-80
2021/06/03 09:54:38;;;;;;;3.60;2.38;;;27.00;99.90;;;;;;4951162;29;20035;-79
2021/06/03 09:57:13;;;;;;;4.90;1.95;;;27.00;99.90;;;;;;4950821;29;20090;-80
2021/06/03 09:59:44;;;;;;;3.10;1.80;;;27.30;99.90;;;;;;4951072;29;20042;-80
2021/06/03 10:02:15;;;;;;;3.92;2.30;;;27.60;99.90;;;;;;4967819;29;20039;-80
2021/06/03 10:04:50;;;;;;;4.90;2.72;;;27.40;99.90;;;;;;4966926;29;20032;-79
2021/06/03 10:07:24;;;;;;;5.10;2.00;;;27.10;99.90;;;;;;4967868;29;20046;-80
2021/06/03 10:10:16;;;;;;;3.20;2.15;;;28.10;99.90;;;;;;4968413;29;20067;-79
2021/06/03 10:12:47;;;;;;;3.00;1.80;;;28.30;99.90;;;;;;4948001;29;20471;-80
2021/06/03 10:15:19;;;;;;;2.75;1.60;;;28.60;99.90;;;;;;4950817;29;20087;-80
2021/06/03 10:17:51;;;;;;;3.88;2.13;;;27.60;99.90;;;;;;4967940;29;20042;-80
2021/06/03 10:20:43;;;;;;;2.60;1.92;;;27.10;99.90;;;;;;4966752;29;20027;-80
2021/06/03 10:23:36;;;;;;;3.72;2.70;;;27.00;99.90;;;;;;4947838;29;20111;-79
2021/06/03 10:26:05;;;;;;;3.60;2.42;;;27.10;99.90;;;;;;4964835;29;20039;-79
2021/06/03 10:28:32;;;;;;;4.15;2.58;;;26.80;99.90;;;;;;4966372;29;20058;-79
2021/06/03 10:31:06;;;;;;;4.43;2.72;;;26.40;99.90;;;;;;4982745;28;20046;-79
2021/06/03 10:33:32;;;;;;;4.70;4.05;;;25.90;99.90;;;;;;4982649;28;20050;-80
2021/06/03 10:36:05;;;;;;;11.60;4.32;;;25.60;99.90;;;;;;4966571;29;20102;-79
2021/06/03 10:38:32;;;;;;;7.43;3.97;;;25.30;99.90;;;;;;4967181;28;20042;-79
2021/06/03 10:41:02;;;;;;;5.63;3.92;;;24.70;99.90;;;;;;4966557;29;20035;-79
2021/06/03 10:43:29;;;;;;;6.82;2.95;;;24.60;99.90;;;;;;4980192;28;20035;-79
2021/06/03 10:45:55;;;;;;;3.92;3.05;;;24.90;99.90;;;;;;4950263;29;20083;-79
2021/06/03 10:48:21;;;;;;;4.72;2.63;;;25.40;99.90;;;;;;4966077;29;20039;-79
2021/06/03 10:50:49;;;;;;;4.60;3.08;;;25.30;99.90;;;;;;4950230;29;20087;-81
2021/06/03 10:53:28;;;;;;;4.13;2.85;;;25.30;99.90;;;;;;4967296;29;20039;-79
2021/06/03 10:55:57;;;;;;;4.32;2.90;;;25.60;99.90;;;;;;4966044;29;20063;-79
2021/06/03 10:58:30;;;;;;;;;;;25.00;99.90;;;;;;4966553;29;20038;-78
2021/06/03 11:01:05;;;;;;;2.95;2.22;;;25.20;99.90;;;;;;4965855;29;19910;-78
2021/06/03 11:03:40;;;;;;;3.00;2.38;;;25.60;99.90;;;;;;4966007;29;20031;-79
2021/06/03 11:06:10;;;;;;;4.13;3.17;;;25.50;99.90;;;;;;4966791;29;20038;-77
2021/06/03 11:08:39;;;;;;;;;;;25.60;99.90;;;;;;4967503;29;20031;-77
2021/06/03 11:11:11;;;;;;;4.40;3.53;;;26.00;99.90;;;;;;4963277;28;19911;-79
2021/06/03 11:13:46;;;;;;;3.22;2.92;;;26.40;99.90;;;;;;4933552;29;20054;-78
2021/06/03 11:16:16;;;;;;;4.20;2.88;;;26.10;99.90;;;;;;4933434;29;20038;-78
2021/06/03 11:18:45;;;;;;;4.55;3.35;;;26.10;99.90;;;;;;4965350;29;20042;-79
2021/06/03 11:21:41;;;;;;;5.47;3.20;;;26.40;99.90;;;;;;4949553;29;20031;-78
2021/06/03 11:24:27;;;;;;;3.55;2.00;;;27.20;99.90;;;;;;4965625;29;20031;-79
2021/06/03 11:26:59;;;;;;;4.25;3.60;;;27.70;99.90;;;;;;4964393;29;20027;-79
2021/06/03 11:29:30;;;;;;;3.90;3.22;;;27.10;99.90;;;;;;4981377;28;20059;-78
2021/06/03 11:32:02;;;;;;;5.50;2.47;;;26.70;99.90;;;;;;4965417;29;20041;-79
2021/06/03 11:34:40;;;;;;;6.00;2.47;;;27.00;99.90;;;;;;4965481;29;20074;-78
2021/06/03 11:37:15;;;;;;;4.30;2.92;;;27.50;99.90;;;;;;4965095;29;20066;-78
2021/06/03 11:39:50;;;;;;;2.70;2.00;;;26.80;99.90;;;;;;4965273;29;20035;-78
2021/06/03 11:42:32;;;;;;;3.50;2.65;;;27.10;99.90;;;;;;4966203;29;20035;-78
2021/06/03 11:45:19;;;;;;;3.28;2.15;;;26.70;99.90;;;;;;4966716;28;20263;-79
2021/06/03 11:47:45;;;;;;;4.75;3.05;;;26.70;99.90;;;;;;4966935;29;20043;-78
2021/06/03 11:50:16;;;;;;;4.00;2.13;;;26.50;99.90;;;;;;4967567;28;20042;-79
2021/06/03 11:53:01;;;;;;;3.45;2.28;;;26.30;99.90;;;;;;4953514;29;20050;-79
2021/06/03 11:55:40;;;;;;;5.65;3.42;;;26.10;99.90;;;;;;4970628;29;20027;-79
2021/06/03 11:58:26;;;;;;;5.38;2.22;;;25.60;99.90;;;;;;4969490;29;20127;-79
2021/06/03 12:01:17;;;;;;;6.10;3.88;;;25.30;99.90;;;;;;4953106;29;20066;-79
2021/06/03 12:03:46;;;;;;;4.70;3.25;;;24.70;99.90;;;;;;4961372;29;20053;-79
2021/06/03 12:06:25;;;;;;;4.68;4.03;;;24.90;99.90;;;;;;4970096;29;20122;-80
2021/06/03 12:09:17;;;;;;;5.03;2.28;;;24.70;99.90;;;;;;4969151;29;20054;-79
2021/06/03 12:11:45;;;;;;;5.55;3.88;;;25.00;99.90;;;;;;4952943;29;20035;-80
2021/06/03 12:14:16;;;;;;;4.10;3.13;;;24.90;99.90;;;;;;4952979;29;20109;-80
2021/06/03 12:16:44;;;;;;;6.05;2.55;;;25.30;99.90;;;;;;4968600;29;20499;-80
2021/06/03 12:19:12;;;;;;;3.10;2.53;;;25.70;99.90;;;;;;4953169;29;20032;-80
2021/06/03 12:21:40;;;;;;;5.55;3.33;;;25.70;99.90;;;;;;4970411;29;20506;-80
2021/06/03 12:24:06;;;;;;;2.25;1.80;;;26.00;99.90;;;;;;4952883;29;20039;-80
2021/06/03 12:26:36;;;;;;;4.50;1.70;;;27.60;99.90;;;;;;4965141;29;20042;-80
2021/06/03 12:29:02;;;;;;;5.00;3.22;;;28.10;99.90;;;;;;4968661;29;20051;-80
2021/06/03 12:31:28;;;;;;;3.97;2.20;;;28.00;99.90;;;;;;4968444;29;20038;-80
2021/06/03 12:33:55;;;;;;;4.75;3.00;;;27.70;99.90;;;;;;4969841;28;20047;-80
2021/06/03 12:36:25;;;;;;;4.63;2.22;;;27.70;99.90;;;;;;4968259;29;20086;-81
2021/06/03 12:38:52;;;;;;;3.67;2.88;;;27.90;99.90;;;;;;4953047;28;20075;-80
2021/06/03 12:41:28;;;;;;;3.63;2.83;;;27.90;99.90;;;;;;4968051;29;20035;-79
2021/06/03 12:44:08;;;;;;;5.03;1.83;;;27.60;99.90;;;;;;4952418;29;20046;-80
2021/06/03 12:46:38;;;;;;;3.60;2.85;;;26.80;99.90;;;;;;4969347;29;20035;-80
2021/06/03 12:49:23;;;;;;;6.13;2.60;;;26.30;99.90;;;;;;4952187;29;20073;-79
2021/06/03 12:52:03;;;;;;;3.88;3.10;;;26.80;99.90;;;;;;4969576;29;20047;-79
2021/06/03 12:54:46;;;;;;;6.85;4.57;;;26.40;99.90;;;;;;4937400;29;20040;-80
2021/06/03 12:57:17;;;;;;;7.53;4.57;;;25.40;99.90;;;;;;4951149;29;20090;-80
2021/06/03 12:59:46;;;;;;;5.05;4.40;;;25.00;99.90;;;;;;4968086;29;20118;-80
2021/06/03 13:02:14;;;;;;;5.18;4.00;;;24.90;99.90;;;;;;4967028;28;20176;-80
2021/06/03 13:04:50;;;;;;;5.25;4.10;;;25.20;99.90;;;;;;4968162;29;20066;-80